Alhaurin de la Torre, Spain
Current Conditions -  °F | °C
As of 12:30 AM on Tuesday 21 Oct 2014 (Local Time) from LEMG Reporting Station
Clear Clear  
Wind Chill: 17°   Ceiling: Unl
Heat Index: 17°   Visibility: 6mi
Dew Point: 14°   Wind: 3mph
Humidity: 82%   Direction: 280°W
Pressure: 30.15"   Gusts: NA
Location:  36.66°N, 4.56°W
Report Text: LEMG 202230Z 28003KT CAVOK 17/14 Q1021 NOSIG
Loading
Personal Weather Stations






























Interactive Weather Map
Tropical Storm Tracking
New forecast layout! Learn more

10-Day Weather Forecast

Advertisements
Track Severe Weather on mobile